Terminal Aerodrome Forecast
Issued by NWS

Home | Current Version | Previous Version | Text Only | Print | Product List | Glossary Off
Versions: 1 2 3 4 5 6 7 8 9 10 11 12 13 14

000
FTUS43 KICT 252328
TAFCNU
TAF
KCNU 252328Z 2600/2624 17009KT P6SM BKN100
     FM260800 26009KT P6SM OVC070
     FM261100 31012KT P6SM BKN070
     FM261500 32020G28KT P6SM SCT100=

USA.gov is the U.S. government's official web portal to all federal, state and local government web resources and services.